Agana Heights, GU

4:12 PM ChST on July 08, 2015 (GMT +1000)
Maite | | Change Station
CLOSE
Current Station
Personal Weather Station
Location: Maite, GU
Elevation: 140 ft
Nearby Weather Stations
Active Advisory: High Surf Advisory

Elev 140 ft 13.48 °N, 144.76 °E | Updated 46 seconds ago

Partly Cloudy
Partly Cloudy
85.9 °F
Feels Like 102 °F
N
16.0
Wind Variable Wind from NW
Gusts 20.0 mph

Today
High -- | Low -- °F
--% Chance of Precip.
Yesterday
High -- | Low -- °F
Precip. -- in
5:59 AM 6:52 PM
Waning Gibbous, 57% visible
Pressure 29.75 in
Visibility 10.0 miles
Clouds Few 1300 ft
Heat Index 102 °F
Dew Point 80 °F
Humidity 84%
Rainfall 0.00 in
Snow Depth Not available.
UV 3.2 out of 12
Pollen Not available.
Air Quality Not available.
Flu Activity Not available.
METAR PGUM 080554Z 30011KT 10SM FEW013 29/26 A2978 RMK AO2 SLP075 T02940256 10300 20289 56007

More Conditions Fewer Conditions

Pressure 29.75 in
Visibility 10.0 miles
Clouds Few 1300 ft
Heat Index 102 °F
Dew Point 80 °F
Humidity 84%
Rainfall 0.00 in
Snow Depth Not available.
UV 3.2 out of 12
Pollen Not available.
Air Quality Not available.
Flu Activity Not available.
METAR PGUM 080554Z 30011KT 10SM FEW013 29/26 A2978 RMK AO2 SLP075 T02940256 10300 20289 56007

More Conditions Fewer Conditions

10-Day Weather Forecast

×

Almanac

Astronomy

Jul. 08, 2015 Rise Set
Actual Time
Civil Twilight
Nautical Twilight
Astronomical Twilight
Moon
Length of Visible Light
Length of Day
Tomorrow will be .
, % of the Moon is Illuminated

Today's Extremes

State Highs State Lows

Community

WunderPhotos

Upload Photos

1,836,061 photos uploaded!

WunderBlogs® & News

Nearby

Air Quality

  Air Quality AQ Index Pollutant
Not available.

Snow Depth

Station Depth Elevation

Earthquake Activity

City Distance Mag. Time & Date
Minimum magnitude displayed is 2.5.

Coastal Water Temperatures

Place Temperature

Stations

Nearby Weather Stations

Station Location Temp. Windchill Dew Point Humidity Wind Precip. Elev Updated Type
                   
High Surf Advisory
Statement as of 8:49 AM GMT on July 08, 2015

... High surf advisory remains in effect until 6 PM chst Friday...

* expect hazardous surf at 8 to 11 feet along west facings reefs
and 7 to 9 feet along south facing reefs through tonight. Surf
will fall below hazardous levels along south facing reefs on
Thursday... but remain hazardous along west facing reefs.

* Expect hazardous surf of 10 to 14 feet by tonight along north
facing reefs for Tinian and Saipan and hazardous surf of 9 to 12
feet by Thursday along north facing reefs for Guam and Rota.
Hazardous surf of 9 to 12 feet could develop along the east
facing reefs on Thursday.

Precautionary/preparedness actions...

Avoid venturing near exposed reefs and beaches... especially those
facing South... West and north... as rip currents will be life
threatening.